createdAt,value
2023-02-20T00:00:48.467Z,23.92
2023-02-20T00:05:49.754Z,23.91
2023-02-20T00:10:51.050Z,23.93
2023-02-20T00:15:52.417Z,23.93
2023-02-20T00:20:53.770Z,23.94
2023-02-20T00:25:55.152Z,23.92
2023-02-20T00:30:56.503Z,23.94
2023-02-20T00:35:57.841Z,23.91
2023-02-20T00:40:59.167Z,23.90
2023-02-20T00:46:00.554Z,23.90
2023-02-20T00:51:01.888Z,23.90
2023-02-20T00:56:03.191Z,23.88
2023-02-20T01:01:04.525Z,23.90
2023-02-20T01:06:05.822Z,23.90
2023-02-20T01:11:07.177Z,23.92
2023-02-20T01:16:08.686Z,23.91
2023-02-20T01:21:10.009Z,23.89
2023-02-20T01:26:11.679Z,23.91
2023-02-20T01:31:13.264Z,23.92
2023-02-20T01:36:14.778Z,23.90
2023-02-20T01:41:16.194Z,23.90
2023-02-20T01:46:17.472Z,23.92
2023-02-20T01:51:18.790Z,23.87
2023-02-20T01:56:20.073Z,23.91
2023-02-20T02:01:21.536Z,23.91
2023-02-20T02:06:22.814Z,23.61
2023-02-20T02:11:24.269Z,23.57
2023-02-20T02:16:25.657Z,23.56
2023-02-20T02:21:27.083Z,23.59
2023-02-20T02:26:28.370Z,23.64
2023-02-20T02:31:29.794Z,23.62
2023-02-20T02:36:31.143Z,23.60
2023-02-20T02:41:32.452Z,23.73
2023-02-20T02:46:33.751Z,23.79
2023-02-20T02:51:35.119Z,23.84
2023-02-20T02:56:36.394Z,23.80
2023-02-20T03:01:37.752Z,23.78
2023-02-20T03:06:39.032Z,23.74
2023-02-20T03:11:40.330Z,23.78
2023-02-20T03:16:41.660Z,23.80
2023-02-20T03:21:42.990Z,23.84
2023-02-20T03:26:44.398Z,23.83
2023-02-20T03:31:45.719Z,23.83
2023-02-20T03:36:47.100Z,23.76
2023-02-20T03:41:48.413Z,23.72
2023-02-20T03:46:49.706Z,23.81
2023-02-20T03:51:50.994Z,23.68
2023-02-20T03:56:52.421Z,23.63
2023-02-20T04:01:53.837Z,23.59
2023-02-20T04:06:55.209Z,23.61
2023-02-20T04:11:56.663Z,22.80
2023-02-20T04:16:58.019Z,23.24
2023-02-20T04:21:59.553Z,23.57
2023-02-20T04:27:00.868Z,23.65
2023-02-20T04:32:02.163Z,23.73
2023-02-20T04:37:03.438Z,23.80
2023-02-20T04:42:04.676Z,23.81
2023-02-20T04:47:05.947Z,23.84
2023-02-20T04:52:07.252Z,23.78
2023-02-20T04:57:08.586Z,23.84
2023-02-20T05:02:10.387Z,23.82
2023-02-20T05:07:11.768Z,23.84
2023-02-20T05:12:13.148Z,23.84
2023-02-20T05:17:14.479Z,23.91
2023-02-20T05:22:15.779Z,23.88
2023-02-20T05:27:17.105Z,23.84
2023-02-20T05:32:18.420Z,23.89
2023-02-20T05:37:19.747Z,23.98
2023-02-20T05:42:21.154Z,23.83
2023-02-20T05:47:22.407Z,24.01
2023-02-20T05:52:23.745Z,24.30
2023-02-20T05:57:25.015Z,24.34
2023-02-20T06:02:26.366Z,24.45
2023-02-20T06:07:27.684Z,24.18
2023-02-20T06:12:29.051Z,23.64
2023-02-20T06:17:30.456Z,23.51
2023-02-20T06:22:31.868Z,23.55
2023-02-20T06:27:33.276Z,23.59
2023-02-20T06:32:34.587Z,23.60
2023-02-20T06:37:35.879Z,23.56
2023-02-20T06:42:37.179Z,23.56
2023-02-20T06:47:38.546Z,23.51
2023-02-20T06:52:40.985Z,23.52
2023-02-20T06:57:42.297Z,23.58
2023-02-20T07:02:43.633Z,23.62
2023-02-20T07:07:44.927Z,23.60
2023-02-20T07:12:46.277Z,23.62
2023-02-20T07:17:47.650Z,23.62
2023-02-20T07:22:49.116Z,23.75
2023-02-20T07:27:50.428Z,23.74
2023-02-20T07:32:51.980Z,23.72
2023-02-20T07:37:53.331Z,23.74
2023-02-20T07:42:54.608Z,23.73
2023-02-20T07:47:55.923Z,23.77
2023-02-20T07:52:57.286Z,23.88
2023-02-20T07:57:58.644Z,23.97
2023-02-20T08:02:59.950Z,24.13
2023-02-20T08:08:01.204Z,24.19
2023-02-20T08:13:02.615Z,24.24
2023-02-20T08:18:07.794Z,24.26
2023-02-20T08:23:13.876Z,24.32
2023-02-20T08:28:15.268Z,24.37
2023-02-20T08:33:16.584Z,24.42
2023-02-20T08:38:17.913Z,24.29
2023-02-20T08:43:19.373Z,24.40
2023-02-20T08:48:20.817Z,24.52
2023-02-20T08:53:22.169Z,24.61
2023-02-20T08:58:23.491Z,24.52
2023-02-20T09:03:24.883Z,24.48
2023-02-20T09:08:26.329Z,24.42
2023-02-20T09:13:27.895Z,24.40
2023-02-20T09:18:29.204Z,24.37
2023-02-20T09:23:30.563Z,24.30
2023-02-20T09:28:31.842Z,24.25
2023-02-20T09:33:33.129Z,24.17
2023-02-20T09:38:34.464Z,24.11
2023-02-20T09:43:35.748Z,24.04
2023-02-20T09:48:37.016Z,23.95
2023-02-20T09:53:38.326Z,23.89
2023-02-20T09:58:39.549Z,23.85
2023-02-20T10:03:40.855Z,23.81
2023-02-20T10:08:42.150Z,23.74
2023-02-20T10:13:43.439Z,23.68
2023-02-20T10:18:44.771Z,23.62
2023-02-20T10:23:51.350Z,23.57
2023-02-20T10:28:58.074Z,23.48
2023-02-20T10:33:59.400Z,23.39
2023-02-20T10:39:00.706Z,23.34
2023-02-20T10:44:02.027Z,23.32
2023-02-20T10:49:03.356Z,23.28
2023-02-20T10:54:04.709Z,23.29
2023-02-20T10:59:06.004Z,23.19
2023-02-20T11:04:07.470Z,23.17
2023-02-20T11:09:08.861Z,23.14
2023-02-20T11:14:10.163Z,23.10
2023-02-20T11:19:11.474Z,23.05
2023-02-20T11:24:12.804Z,22.99
2023-02-20T11:29:14.115Z,22.94
2023-02-20T11:34:15.516Z,22.91
2023-02-20T11:39:16.831Z,22.85
2023-02-20T11:44:18.096Z,22.82
2023-02-20T11:49:19.388Z,22.76
2023-02-20T11:54:20.661Z,22.72
2023-02-20T11:59:21.981Z,22.66
2023-02-20T12:04:23.351Z,22.62
2023-02-20T12:09:24.639Z,22.57
2023-02-20T12:14:25.928Z,22.54
2023-02-20T12:19:27.212Z,22.48
2023-02-20T12:24:28.620Z,22.46
2023-02-20T12:29:29.887Z,22.44
2023-02-20T12:34:31.184Z,22.43
2023-02-20T12:39:32.529Z,22.40
2023-02-20T12:44:33.861Z,22.38
2023-02-20T12:49:35.105Z,22.34
2023-02-20T12:54:36.398Z,22.32
2023-02-20T12:59:37.671Z,22.31
2023-02-20T13:04:38.945Z,22.29
2023-02-20T13:09:40.211Z,22.27
2023-02-20T13:14:41.445Z,22.27
2023-02-20T13:19:42.734Z,22.25
2023-02-20T13:24:44.045Z,22.21
2023-02-20T13:29:45.440Z,22.20
2023-02-20T13:34:46.719Z,22.17
2023-02-20T13:39:48.033Z,22.15
2023-02-20T13:44:49.332Z,22.14
2023-02-20T13:49:50.637Z,22.12
2023-02-20T13:54:51.942Z,22.10
2023-02-20T13:59:53.199Z,22.09
2023-02-20T14:04:54.631Z,22.08
2023-02-20T14:09:55.960Z,22.08
2023-02-20T14:14:57.236Z,22.06
2023-02-20T14:20:08.506Z,22.05
2023-02-20T14:25:13.579Z,22.06
2023-02-20T14:30:14.936Z,22.01
2023-02-20T14:35:16.364Z,21.97
2023-02-20T14:40:17.694Z,21.97
2023-02-20T14:45:19.011Z,21.95
2023-02-20T14:50:20.376Z,21.96
2023-02-20T14:55:21.751Z,22.11
2023-02-20T15:00:23.138Z,22.30
2023-02-20T15:05:24.473Z,22.45
2023-02-20T15:10:25.741Z,22.61
2023-02-20T15:15:27.663Z,22.73
2023-02-20T15:20:28.990Z,22.86
2023-02-20T18:29:32.286Z,24.09
2023-02-20T18:34:33.633Z,23.94
2023-02-20T18:39:34.961Z,23.92
2023-02-20T18:44:36.236Z,23.88
2023-02-20T18:49:37.607Z,23.89
2023-02-20T18:54:38.948Z,23.93
2023-02-20T18:59:40.235Z,23.96
2023-02-20T19:04:41.500Z,23.94
2023-02-20T19:09:42.734Z,23.91
2023-02-20T19:14:44.060Z,23.89
2023-02-20T19:19:45.338Z,23.91
2023-02-20T19:24:46.627Z,23.92
2023-02-20T19:29:47.948Z,23.95
2023-02-20T19:34:49.280Z,23.98
2023-02-20T19:39:50.578Z,23.95
2023-02-20T19:44:51.906Z,23.92
2023-02-20T19:49:53.221Z,24.01
2023-02-20T19:54:54.516Z,24.12
2023-02-20T19:59:55.806Z,24.13
2023-02-20T20:04:57.111Z,24.13
2023-02-20T20:09:58.390Z,24.04
2023-02-20T20:14:59.713Z,24.04
2023-02-20T20:20:01.352Z,23.95
2023-02-20T20:25:02.739Z,23.86
2023-02-20T20:30:04.057Z,23.87
2023-02-20T20:35:05.371Z,23.85
2023-02-20T20:40:06.634Z,23.95
2023-02-20T20:45:07.884Z,24.06
2023-02-20T20:50:09.156Z,24.10
2023-02-20T20:55:10.417Z,23.92
2023-02-20T21:00:11.733Z,23.82
2023-02-20T21:05:13.060Z,23.91
2023-02-20T21:10:14.383Z,23.92
2023-02-20T21:15:15.686Z,23.73
2023-02-20T21:20:16.980Z,23.67
2023-02-20T21:25:18.287Z,23.64
2023-02-20T21:30:19.578Z,23.72
2023-02-20T21:35:20.890Z,24.16
2023-02-20T21:40:22.218Z,24.38
2023-02-20T21:45:23.507Z,24.49
2023-02-20T21:50:24.875Z,24.58
2023-02-20T21:55:26.270Z,24.67
2023-02-20T22:00:27.592Z,24.64
2023-02-20T22:05:28.880Z,24.79
2023-02-20T22:10:30.111Z,24.77
2023-02-20T22:15:31.483Z,24.79
2023-02-20T22:20:32.744Z,23.90
2023-02-20T22:25:34.027Z,23.67
2023-02-20T22:30:35.345Z,23.62
2023-02-20T22:35:36.686Z,23.54
2023-02-20T22:40:38.026Z,23.63
2023-02-20T22:45:39.330Z,23.56
2023-02-20T22:50:40.644Z,23.57
2023-02-20T22:55:41.940Z,23.58
2023-02-20T23:00:43.251Z,23.57
2023-02-20T23:05:44.574Z,23.57
2023-02-20T23:10:45.831Z,23.64
2023-02-20T23:15:47.108Z,23.65
2023-02-20T23:20:48.382Z,23.58
2023-02-20T23:25:49.700Z,23.60
2023-02-20T23:30:51.023Z,23.59
2023-02-20T23:35:52.297Z,23.59
2023-02-20T23:40:53.590Z,23.57
2023-02-20T23:45:54.906Z,23.55
2023-02-20T23:50:56.231Z,23.52
2023-02-20T23:55:57.572Z,23.53
